Aviation Digital Data Service (ADDS)

Output produced by METARs form (1212 UTC 24 March 2017)
found at http://www.aviationweather.gov/adds/metars/
 
METAR text: KHAE 241155Z AUTO 15007KT 10SM CLR 13/07 A2992 RMK AO2
Conditions at: KHAE (HANNIBAL , MO, US) observed 1155 UTC 24 March 2017
Temperature: 13.0°C (55°F)
Dewpoint: 7.0°C (45°F) [RH = 67%]
Pressure (altimeter): 29.92 inches Hg (1013.3 mb)
Winds: from the SSE (150 degrees) at 8 MPH (7 knots; 3.6 m/s)
Visibility: 10 or more miles (16+ km)
Ceiling: at least 12,000 feet AGL
Clouds: sky clear below 12,000 feet AGL
Weather: automated observation with no human augmentation;
there may or may not be significant weather present at this time